Ferry Kyoto2 — JI3701 — position and weather

sailwx.info

Track history (hours):
 
Tides and Currents Weather Stations Pressure Air Temp Water Temp Dewpoint Dewpoint Depression Visibility Wind Speed Wind Dir Waves Ship Positions

Ferry Kyoto2

Last reported at 2016-Feb-13 20:33 UTC. Time now 2016-Feb-13 21:28 UTC.
Position N 34°37' E 134°59'.

Length 167 m; draft 5.9 m.

Type: Passenger vessel. MMSI: 431301641.

Date/timePositionNaut miles runAvg speedWind from/ knotsBaromVisibWave heightAir tempDewpointWater temp
2016-Feb-13 20:33N 34°37' E 134°59'5 0.2
2016-Feb-12 09:33N 34°35' E 134°53'1919.3
2016-Feb-12 08:33N 34°37' E 135°16'8 7.5
2016-Feb-12 07:30N 34°37' E 135°26'0 0.0
2016-Feb-12 06:30N 34°37' E 135°26'0 0.0
2016-Feb-12 05:24N 34°37' E 135°26'0 0.0
2016-Feb-12 04:30N 34°37' E 135°26'0 0.0
2016-Feb-12 03:18N 34°37' E 135°26'0 0.0
2016-Feb-12 02:30N 34°37' E 135°26'0 0.0
2016-Feb-12 01:30N 34°37' E 135°26'0 0.0
2016-Feb-12 00:30N 34°37' E 135°26'0 0.0
2016-Feb-11 23:18N 34°37' E 135°26'0 0.0
2016-Feb-11 22:30N 34°37' E 135°26'0 0.0
2016-Feb-11 21:12N 34°37' E 135°26'0 0.0
2016-Feb-11 20:30N 34°37' E 135°26'9 9.5
2016-Feb-11 19:33N 34°36' E 135°15'1817.8
2016-Feb-11 18:33N 34°35' E 134°53'25 0.7
2016-Feb-10 08:16N 34°38' E 135°23'2 3.1
2016-Feb-10 07:33N 34°37' E 135°26'0 0.0
2016-Feb-10 06:27N 34°37' E 135°26'0 0.0
2016-Feb-10 05:15N 34°37' E 135°26'0 0.0
2016-Feb-10 04:33N 34°37' E 135°26'0 0.0
2016-Feb-10 03:27N 34°37' E 135°26'0 0.0
2016-Feb-10 02:21N 34°37' E 135°26'0 0.0
2016-Feb-10 01:09N 34°37' E 135°26'0 0.0
2016-Feb-10 00:27N 34°37' E 135°26'0 0.0
2016-Feb-09 22:33N 34°37' E 135°26'0 0.0
2016-Feb-09 21:27N 34°37' E 135°26'0 0.0
2016-Feb-09 20:28N 34°37' E 135°26'8 9.3
2016-Feb-09 19:34N 34°35' E 135°16'1817.7
2016-Feb-09 18:34N 34°35' E 134°54'2 0.1
2016-Feb-08 09:33N 34°35' E 134°52'2121.0
2016-Feb-08 08:33N 34°36' E 135°17'7 5.9
2016-Feb-08 07:20N 34°37' E 135°26'0 0.0
2016-Feb-08 06:32N 34°37' E 135°26'0 0.0
2016-Feb-08 05:32N 34°37' E 135°26'0 0.0
2016-Feb-08 04:32N 34°37' E 135°26'0 0.0
2016-Feb-08 03:32N 34°37' E 135°26'0 0.0
2016-Feb-08 01:26N 34°37' E 135°26'0 0.0
2016-Feb-08 00:26N 34°37' E 135°26'0 0.0
2016-Feb-07 23:26N 34°37' E 135°26'0 0.0
2016-Feb-07 22:32N 34°37' E 135°26'0 0.0
2016-Feb-07 21:32N 34°37' E 135°26'0 0.0
2016-Feb-07 20:32N 34°37' E 135°26'9 8.9
2016-Feb-07 19:34N 34°36' E 135°16'1615.9
2016-Feb-07 18:33N 34°36' E 134°56'19419.4
2016-Feb-07 08:33N 33°53' E 131°08'190 8.3
2016-Feb-06 09:32N 34°35' E 134°52'2121.4
2016-Feb-06 08:33N 34°36' E 135°17'7 7.1
2016-Feb-06 07:33N 34°37' E 135°26'0 0.0
2016-Feb-06 06:27N 34°37' E 135°26'0 0.0
2016-Feb-06 05:33N 34°37' E 135°26'0 0.0
2016-Feb-06 04:33N 34°37' E 135°26'0 0.0
2016-Feb-06 03:33N 34°37' E 135°26'0 0.0
2016-Feb-06 02:33N 34°37' E 135°26'0 0.0
2016-Feb-06 01:33N 34°37' E 135°26'0 0.0
2016-Feb-06 00:27N 34°37' E 135°26'0 0.0
2016-Feb-05 23:33N 34°37' E 135°26'0 0.0
2016-Feb-05 22:33N 34°37' E 135°26'0 0.0
2016-Feb-05 21:33N 34°37' E 135°26'0 0.0
2016-Feb-05 20:33N 34°37' E 135°26'1211.7
2016-Feb-05 19:33N 34°35' E 135°12'1817.8
2016-Feb-05 18:33N 34°34' E 134°51'2 0.1
2016-Feb-04 09:33N 34°35' E 134°52'2120.8
2016-Feb-04 08:33N 34°37' E 135°18'7 5.4
2016-Feb-04 07:16N 34°37' E 135°26'0 0.0
2016-Feb-04 06:28N 34°37' E 135°26'0 0.0
2016-Feb-04 05:28N 34°37' E 135°26'0 0.0
2016-Feb-04 04:28N 34°37' E 135°26'0 0.0
2016-Feb-04 03:16N 34°37' E 135°26'0 0.0
2016-Feb-04 02:28N 34°37' E 135°26'0 0.0
2016-Feb-04 01:28N 34°37' E 135°26'0 0.0
2016-Feb-04 00:22N 34°37' E 135°26'0 0.0
2016-Feb-03 23:22N 34°37' E 135°26'0 0.0
2016-Feb-03 22:28N 34°37' E 135°26'0 0.0
2016-Feb-03 21:22N 34°37' E 135°26'  
Track history (hours):
 
Tides and Currents Weather Stations Pressure Air Temp Water Temp Dewpoint Dewpoint Depression Visibility Wind Speed Wind Dir Waves Ship Positions

Ferry Kyoto2

Last reported at 2016-Feb-13 20:33 UTC. Time now 2016-Feb-13 21:28 UTC.
Position N 34°37' E 134°59'.

Length 167 m; draft 5.9 m.

Type: Passenger vessel. MMSI: 431301641.

Date/timePositionNaut miles runAvg speedWind from/ knotsBaromVisibWave heightAir tempDewpointWater temp
2016-Feb-13 20:33N 34°37' E 134°59'5 0.2
2016-Feb-12 09:33N 34°35' E 134°53'1919.3
2016-Feb-12 08:33N 34°37' E 135°16'8 7.5
2016-Feb-12 07:30N 34°37' E 135°26'0 0.0
2016-Feb-12 06:30N 34°37' E 135°26'0 0.0
2016-Feb-12 05:24N 34°37' E 135°26'0 0.0
2016-Feb-12 04:30N 34°37' E 135°26'0 0.0
2016-Feb-12 03:18N 34°37' E 135°26'0 0.0
2016-Feb-12 02:30N 34°37' E 135°26'0 0.0
2016-Feb-12 01:30N 34°37' E 135°26'0 0.0
2016-Feb-12 00:30N 34°37' E 135°26'0 0.0
2016-Feb-11 23:18N 34°37' E 135°26'0 0.0
2016-Feb-11 22:30N 34°37' E 135°26'0 0.0
2016-Feb-11 21:12N 34°37' E 135°26'0 0.0
2016-Feb-11 20:30N 34°37' E 135°26'9 9.5
2016-Feb-11 19:33N 34°36' E 135°15'1817.8
2016-Feb-11 18:33N 34°35' E 134°53'25 0.7
2016-Feb-10 08:16N 34°38' E 135°23'2 3.1
2016-Feb-10 07:33N 34°37' E 135°26'0 0.0
2016-Feb-10 06:27N 34°37' E 135°26'0 0.0
2016-Feb-10 05:15N 34°37' E 135°26'0 0.0
2016-Feb-10 04:33N 34°37' E 135°26'0 0.0
2016-Feb-10 03:27N 34°37' E 135°26'0 0.0
2016-Feb-10 02:21N 34°37' E 135°26'0 0.0
2016-Feb-10 01:09N 34°37' E 135°26'0 0.0
2016-Feb-10 00:27N 34°37' E 135°26'0 0.0
2016-Feb-09 22:33N 34°37' E 135°26'0 0.0
2016-Feb-09 21:27N 34°37' E 135°26'0 0.0
2016-Feb-09 20:28N 34°37' E 135°26'8 9.3
2016-Feb-09 19:34N 34°35' E 135°16'1817.7
2016-Feb-09 18:34N 34°35' E 134°54'2 0.1
2016-Feb-08 09:33N 34°35' E 134°52'2121.0
2016-Feb-08 08:33N 34°36' E 135°17'7 5.9
2016-Feb-08 07:20N 34°37' E 135°26'0 0.0
2016-Feb-08 06:32N 34°37' E 135°26'0 0.0
2016-Feb-08 05:32N 34°37' E 135°26'0 0.0
2016-Feb-08 04:32N 34°37' E 135°26'0 0.0
2016-Feb-08 03:32N 34°37' E 135°26'0 0.0
2016-Feb-08 01:26N 34°37' E 135°26'0 0.0
2016-Feb-08 00:26N 34°37' E 135°26'0 0.0
2016-Feb-07 23:26N 34°37' E 135°26'0 0.0
2016-Feb-07 22:32N 34°37' E 135°26'0 0.0
2016-Feb-07 21:32N 34°37' E 135°26'0 0.0
2016-Feb-07 20:32N 34°37' E 135°26'9 8.9
2016-Feb-07 19:34N 34°36' E 135°16'1615.9
2016-Feb-07 18:33N 34°36' E 134°56'19419.4
2016-Feb-07 08:33N 33°53' E 131°08'190 8.3
2016-Feb-06 09:32N 34°35' E 134°52'2121.4
2016-Feb-06 08:33N 34°36' E 135°17'7 7.1
2016-Feb-06 07:33N 34°37' E 135°26'0 0.0
2016-Feb-06 06:27N 34°37' E 135°26'0 0.0
2016-Feb-06 05:33N 34°37' E 135°26'0 0.0
2016-Feb-06 04:33N 34°37' E 135°26'0 0.0
2016-Feb-06 03:33N 34°37' E 135°26'0 0.0
2016-Feb-06 02:33N 34°37' E 135°26'0 0.0
2016-Feb-06 01:33N 34°37' E 135°26'0 0.0
2016-Feb-06 00:27N 34°37' E 135°26'0 0.0
2016-Feb-05 23:33N 34°37' E 135°26'0 0.0
2016-Feb-05 22:33N 34°37' E 135°26'0 0.0
2016-Feb-05 21:33N 34°37' E 135°26'0 0.0
2016-Feb-05 20:33N 34°37' E 135°26'1211.7
2016-Feb-05 19:33N 34°35' E 135°12'1817.8
2016-Feb-05 18:33N 34°34' E 134°51'2 0.1
2016-Feb-04 09:33N 34°35' E 134°52'2120.8
2016-Feb-04 08:33N 34°37' E 135°18'7 5.4
2016-Feb-04 07:16N 34°37' E 135°26'0 0.0
2016-Feb-04 06:28N 34°37' E 135°26'0 0.0
2016-Feb-04 05:28N 34°37' E 135°26'0 0.0
2016-Feb-04 04:28N 34°37' E 135°26'0 0.0
2016-Feb-04 03:16N 34°37' E 135°26'0 0.0
2016-Feb-04 02:28N 34°37' E 135°26'0 0.0
2016-Feb-04 01:28N 34°37' E 135°26'0 0.0
2016-Feb-04 00:22N 34°37' E 135°26'0 0.0
2016-Feb-03 23:22N 34°37' E 135°26'0 0.0
2016-Feb-03 22:28N 34°37' E 135°26'0 0.0
2016-Feb-03 21:22N 34°37' E 135°26'  

Dump ship's entire track history